sensor_id;sensor_type;location;lat;lon;timestamp;P1;durP1;ratioP1;P2;durP2;ratioP2
56593;SDS011;42474;51.660;5.824;2023-04-03T00:00:46;8.2;;;5.7;;
56593;SDS011;42474;51.660;5.824;2023-04-03T00:05:46;10.8;;;6.7;;
56593;SDS011;42474;51.660;5.824;2023-04-03T00:10:46;12.1;;;6.7;;
56593;SDS011;42474;51.660;5.824;2023-04-03T00:15:46;8.9;;;6.3;;
56593;SDS011;42474;51.660;5.824;2023-04-03T00:20:46;8.9;;;5.6;;
56593;SDS011;42474;51.660;5.824;2023-04-03T00:25:46;7.9;;;6.1;;
56593;SDS011;42474;51.660;5.824;2023-04-03T00:30:48;8.1;;;6.1;;
56593;SDS011;42474;51.660;5.824;2023-04-03T00:35:46;7.3;;;5.9;;
56593;SDS011;42474;51.660;5.824;2023-04-03T00:40:47;8.7;;;5.8;;
56593;SDS011;42474;51.660;5.824;2023-04-03T00:45:53;7.9;;;6.1;;
56593;SDS011;42474;51.660;5.824;2023-04-03T00:50:47;10.0;;;5.7;;
56593;SDS011;42474;51.660;5.824;2023-04-03T00:55:47;6.8;;;5.5;;
56593;SDS011;42474;51.660;5.824;2023-04-03T01:00:48;7.1;;;4.9;;
56593;SDS011;42474;51.660;5.824;2023-04-03T01:05:46;6.8;;;4.5;;
56593;SDS011;42474;51.660;5.824;2023-04-03T01:10:46;5.7;;;4.3;;
56593;SDS011;42474;51.660;5.824;2023-04-03T01:15:46;5.6;;;4.3;;
56593;SDS011;42474;51.660;5.824;2023-04-03T01:21:00;6.4;;;4.1;;
56593;SDS011;42474;51.660;5.824;2023-04-03T01:25:47;6.3;;;4.0;;
56593;SDS011;42474;51.660;5.824;2023-04-03T01:30:47;6.0;;;4.1;;
56593;SDS011;42474;51.660;5.824;2023-04-03T01:35:46;6.0;;;4.4;;
56593;SDS011;42474;51.660;5.824;2023-04-03T01:40:46;6.4;;;4.1;;
56593;SDS011;42474;51.660;5.824;2023-04-03T01:45:46;5.3;;;4.1;;
56593;SDS011;42474;51.660;5.824;2023-04-03T01:50:46;4.7;;;3.9;;
56593;SDS011;42474;51.660;5.824;2023-04-03T01:55:46;5.2;;;3.9;;
56593;SDS011;42474;51.660;5.824;2023-04-03T02:00:46;6.2;;;3.7;;
56593;SDS011;42474;51.660;5.824;2023-04-03T02:05:46;6.0;;;3.7;;
56593;SDS011;42474;51.660;5.824;2023-04-03T02:10:46;4.1;;;3.1;;
56593;SDS011;42474;51.660;5.824;2023-04-03T02:15:46;4.6;;;3.2;;
56593;SDS011;42474;51.660;5.824;2023-04-03T02:20:46;5.7;;;3.0;;
56593;SDS011;42474;51.660;5.824;2023-04-03T02:25:46;4.7;;;4.1;;
56593;SDS011;42474;51.660;5.824;2023-04-03T02:30:46;4.4;;;3.0;;
56593;SDS011;42474;51.660;5.824;2023-04-03T02:35:46;4.0;;;2.7;;
56593;SDS011;42474;51.660;5.824;2023-04-03T02:40:46;5.3;;;3.0;;
56593;SDS011;42474;51.660;5.824;2023-04-03T02:45:46;6.1;;;3.3;;
56593;SDS011;42474;51.660;5.824;2023-04-03T02:50:46;5.5;;;2.7;;
56593;SDS011;42474;51.660;5.824;2023-04-03T02:55:46;4.2;;;2.7;;
56593;SDS011;42474;51.660;5.824;2023-04-03T03:00:46;4.7;;;2.8;;
56593;SDS011;42474;51.660;5.824;2023-04-03T03:05:46;4.9;;;2.8;;
56593;SDS011;42474;51.660;5.824;2023-04-03T03:10:46;4.2;;;3.0;;
56593;SDS011;42474;51.660;5.824;2023-04-03T03:15:46;5.9;;;2.9;;
56593;SDS011;42474;51.660;5.824;2023-04-03T03:20:46;4.8;;;3.0;;
56593;SDS011;42474;51.660;5.824;2023-04-03T03:25:46;3.7;;;2.9;;
56593;SDS011;42474;51.660;5.824;2023-04-03T03:30:46;3.2;;;2.7;;
56593;SDS011;42474;51.660;5.824;2023-04-03T03:35:46;5.3;;;2.9;;
56593;SDS011;42474;51.660;5.824;2023-04-03T03:40:47;6.1;;;2.7;;
56593;SDS011;42474;51.660;5.824;2023-04-03T03:45:49;4.8;;;2.5;;
56593;SDS011;42474;51.660;5.824;2023-04-03T03:50:46;4.0;;;2.4;;
56593;SDS011;42474;51.660;5.824;2023-04-03T03:55:46;5.3;;;2.6;;
56593;SDS011;42474;51.660;5.824;2023-04-03T04:00:46;6.7;;;2.8;;
56593;SDS011;42474;51.660;5.824;2023-04-03T04:05:46;4.0;;;2.5;;
56593;SDS011;42474;51.660;5.824;2023-04-03T04:10:46;4.3;;;2.1;;
56593;SDS011;42474;51.660;5.824;2023-04-03T04:15:46;3.1;;;2.1;;
56593;SDS011;42474;51.660;5.824;2023-04-03T04:20:46;4.1;;;2.4;;
56593;SDS011;42474;51.660;5.824;2023-04-03T04:25:47;5.3;;;2.8;;
56593;SDS011;42474;51.660;5.824;2023-04-03T04:30:46;3.1;;;2.1;;
56593;SDS011;42474;51.660;5.824;2023-04-03T04:35:46;5.9;;;2.5;;
56593;SDS011;42474;51.660;5.824;2023-04-03T04:40:47;3.7;;;2.3;;
56593;SDS011;42474;51.660;5.824;2023-04-03T04:45:46;3.1;;;1.9;;
56593;SDS011;42474;51.660;5.824;2023-04-03T04:50:46;4.5;;;2.0;;
56593;SDS011;42474;51.660;5.824;2023-04-03T04:55:46;3.6;;;2.2;;
56593;SDS011;42474;51.660;5.824;2023-04-03T05:00:46;2.7;;;2.1;;
56593;SDS011;42474;51.660;5.824;2023-04-03T05:05:46;2.7;;;1.9;;
56593;SDS011;42474;51.660;5.824;2023-04-03T05:10:46;3.5;;;2.2;;
56593;SDS011;42474;51.660;5.824;2023-04-03T05:15:46;3.9;;;2.3;;
56593;SDS011;42474;51.660;5.824;2023-04-03T05:20:48;3.3;;;2.3;;
56593;SDS011;42474;51.660;5.824;2023-04-03T05:25:47;3.6;;;2.5;;
56593;SDS011;42474;51.660;5.824;2023-04-03T05:30:46;2.8;;;2.0;;
56593;SDS011;42474;51.660;5.824;2023-04-03T05:35:46;3.3;;;2.1;;
56593;SDS011;42474;51.660;5.824;2023-04-03T05:40:46;4.2;;;2.2;;
56593;SDS011;42474;51.660;5.824;2023-04-03T05:45:47;3.6;;;2.1;;
56593;SDS011;42474;51.660;5.824;2023-04-03T05:50:46;4.7;;;2.8;;
56593;SDS011;42474;51.660;5.824;2023-04-03T05:55:46;3.8;;;2.2;;
56593;SDS011;42474;51.660;5.824;2023-04-03T06:00:46;5.4;;;2.4;;
56593;SDS011;42474;51.660;5.824;2023-04-03T06:05:47;6.4;;;2.4;;
56593;SDS011;42474;51.660;5.824;2023-04-03T06:10:46;5.3;;;2.6;;
56593;SDS011;42474;51.660;5.824;2023-04-03T06:15:46;3.7;;;2.2;;
56593;SDS011;42474;51.660;5.824;2023-04-03T06:20:46;4.8;;;2.6;;
56593;SDS011;42474;51.660;5.824;2023-04-03T06:25:46;4.4;;;2.7;;
56593;SDS011;42474;51.660;5.824;2023-04-03T06:30:46;4.1;;;2.5;;
56593;SDS011;42474;51.660;5.824;2023-04-03T06:35:46;3.0;;;2.2;;
56593;SDS011;42474;51.660;5.824;2023-04-03T06:40:46;3.4;;;1.9;;
56593;SDS011;42474;51.660;5.824;2023-04-03T06:45:46;3.0;;;2.1;;
56593;SDS011;42474;51.660;5.824;2023-04-03T06:50:46;5.0;;;2.3;;
56593;SDS011;42474;51.660;5.824;2023-04-03T06:55:46;3.1;;;1.8;;
56593;SDS011;42474;51.660;5.824;2023-04-03T07:00:46;5.2;;;2.5;;
56593;SDS011;42474;51.660;5.824;2023-04-03T07:05:46;4.7;;;1.9;;
56593;SDS011;42474;51.660;5.824;2023-04-03T07:10:46;4.7;;;1.8;;
56593;SDS011;42474;51.660;5.824;2023-04-03T07:15:46;4.3;;;1.9;;
56593;SDS011;42474;51.660;5.824;2023-04-03T07:20:46;3.4;;;1.7;;
56593;SDS011;42474;51.660;5.824;2023-04-03T07:25:49;3.2;;;1.9;;
56593;SDS011;42474;51.660;5.824;2023-04-03T07:30:49;2.8;;;1.8;;
56593;SDS011;42474;51.660;5.824;2023-04-03T07:35:47;2.7;;;1.6;;
56593;SDS011;42474;51.660;5.824;2023-04-03T07:40:47;2.7;;;1.7;;
56593;SDS011;42474;51.660;5.824;2023-04-03T07:45:46;6.7;;;2.0;;
56593;SDS011;42474;51.660;5.824;2023-04-03T07:50:46;5.9;;;1.7;;
56593;SDS011;42474;51.660;5.824;2023-04-03T07:55:46;3.1;;;1.8;;
56593;SDS011;42474;51.660;5.824;2023-04-03T08:00:46;4.1;;;1.9;;
56593;SDS011;42474;51.660;5.824;2023-04-03T08:05:47;2.9;;;1.8;;
56593;SDS011;42474;51.660;5.824;2023-04-03T08:10:48;3.4;;;1.5;;
56593;SDS011;42474;51.660;5.824;2023-04-03T08:15:46;3.4;;;1.6;;
56593;SDS011;42474;51.660;5.824;2023-04-03T08:20:46;5.0;;;1.7;;
56593;SDS011;42474;51.660;5.824;2023-04-03T08:25:46;3.4;;;1.6;;
56593;SDS011;42474;51.660;5.824;2023-04-03T08:30:46;2.8;;;1.4;;
56593;SDS011;42474;51.660;5.824;2023-04-03T08:35:47;4.0;;;1.6;;
56593;SDS011;42474;51.660;5.824;2023-04-03T08:40:46;3.5;;;1.3;;
56593;SDS011;42474;51.660;5.824;2023-04-03T08:45:49;3.9;;;1.7;;
56593;SDS011;42474;51.660;5.824;2023-04-03T08:55:49;1.7;;;1.1;;
56593;SDS011;42474;51.660;5.824;2023-04-03T09:00:47;1.7;;;1.1;;
56593;SDS011;42474;51.660;5.824;2023-04-03T09:05:49;1.3;;;1.0;;
56593;SDS011;42474;51.660;5.824;2023-04-03T09:10:46;2.2;;;0.9;;
56593;SDS011;42474;51.660;5.824;2023-04-03T09:15:46;1.3;;;0.9;;
56593;SDS011;42474;51.660;5.824;2023-04-03T09:20:49;1.5;;;0.9;;
56593;SDS011;42474;51.660;5.824;2023-04-03T09:25:47;2.5;;;0.9;;
56593;SDS011;42474;51.660;5.824;2023-04-03T09:30:46;1.0;;;0.7;;
56593;SDS011;42474;51.660;5.824;2023-04-03T09:35:46;2.4;;;0.8;;
56593;SDS011;42474;51.660;5.824;2023-04-03T09:41:18;1.1;;;0.9;;
56593;SDS011;42474;51.660;5.824;2023-04-03T09:45:47;1.2;;;0.7;;
56593;SDS011;42474;51.660;5.824;2023-04-03T09:50:52;1.4;;;0.8;;
56593;SDS011;42474;51.660;5.824;2023-04-03T10:00:54;1.9;;;0.8;;
56593;SDS011;42474;51.660;5.824;2023-04-03T10:05:47;0.8;;;0.6;;
56593;SDS011;42474;51.660;5.824;2023-04-03T10:11:05;1.4;;;0.7;;
56593;SDS011;42474;51.660;5.824;2023-04-03T10:15:48;1.0;;;0.6;;
56593;SDS011;42474;51.660;5.824;2023-04-03T10:20:47;1.3;;;0.6;;
56593;SDS011;42474;51.660;5.824;2023-04-03T10:25:51;1.1;;;0.6;;
56593;SDS011;42474;51.660;5.824;2023-04-03T10:30:58;1.6;;;0.8;;
56593;SDS011;42474;51.660;5.824;2023-04-03T10:35:51;1.6;;;0.7;;
56593;SDS011;42474;51.660;5.824;2023-04-03T10:41:04;1.8;;;0.8;;
56593;SDS011;42474;51.660;5.824;2023-04-03T10:46:02;1.6;;;0.7;;
56593;SDS011;42474;51.660;5.824;2023-04-03T10:51:16;2.2;;;0.7;;
56593;SDS011;42474;51.660;5.824;2023-04-03T10:56:02;1.6;;;0.9;;
56593;SDS011;42474;51.660;5.824;2023-04-03T11:00:53;1.7;;;0.7;;
56593;SDS011;42474;51.660;5.824;2023-04-03T11:05:49;1.6;;;0.7;;
56593;SDS011;42474;51.660;5.824;2023-04-03T11:10:54;1.4;;;0.8;;
56593;SDS011;42474;51.660;5.824;2023-04-03T11:15:46;0.9;;;0.7;;
56593;SDS011;42474;51.660;5.824;2023-04-03T11:20:53;2.1;;;0.9;;
56593;SDS011;42474;51.660;5.824;2023-04-03T11:25:47;2.7;;;0.9;;
56593;SDS011;42474;51.660;5.824;2023-04-03T11:30:49;1.7;;;0.8;;
56593;SDS011;42474;51.660;5.824;2023-04-03T11:35:47;2.8;;;1.1;;
56593;SDS011;42474;51.660;5.824;2023-04-03T11:40:46;1.2;;;0.8;;
56593;SDS011;42474;51.660;5.824;2023-04-03T11:46:01;2.4;;;0.8;;
56593;SDS011;42474;51.660;5.824;2023-04-03T11:50:47;1.6;;;0.8;;
56593;SDS011;42474;51.660;5.824;2023-04-03T11:56:01;2.2;;;0.9;;
56593;SDS011;42474;51.660;5.824;2023-04-03T12:01:08;1.6;;;1.0;;
56593;SDS011;42474;51.660;5.824;2023-04-03T12:05:47;1.3;;;1.0;;
56593;SDS011;42474;51.660;5.824;2023-04-03T12:10:55;2.2;;;0.8;;
56593;SDS011;42474;51.660;5.824;2023-04-03T12:15:52;2.0;;;0.8;;
56593;SDS011;42474;51.660;5.824;2023-04-03T12:20:51;1.3;;;0.9;;
56593;SDS011;42474;51.660;5.824;2023-04-03T12:26:04;2.2;;;1.1;;
56593;SDS011;42474;51.660;5.824;2023-04-03T12:30:47;2.4;;;1.1;;
56593;SDS011;42474;51.660;5.824;2023-04-03T12:35:56;2.0;;;1.3;;
56593;SDS011;42474;51.660;5.824;2023-04-03T12:41:21;1.7;;;0.9;;
56593;SDS011;42474;51.660;5.824;2023-04-03T12:45:48;3.1;;;1.2;;
56593;SDS011;42474;51.660;5.824;2023-04-03T12:50:49;11.5;;;1.9;;
56593;SDS011;42474;51.660;5.824;2023-04-03T12:55:47;3.2;;;1.0;;
56593;SDS011;42474;51.660;5.824;2023-04-03T13:00:48;1.9;;;0.9;;
56593;SDS011;42474;51.660;5.824;2023-04-03T13:05:46;2.1;;;1.0;;
56593;SDS011;42474;51.660;5.824;2023-04-03T13:10:51;2.7;;;1.2;;
56593;SDS011;42474;51.660;5.824;2023-04-03T13:15:49;3.0;;;1.3;;
56593;SDS011;42474;51.660;5.824;2023-04-03T13:20:47;6.3;;;1.2;;
56593;SDS011;42474;51.660;5.824;2023-04-03T13:25:47;1.5;;;0.9;;
56593;SDS011;42474;51.660;5.824;2023-04-03T13:30:56;1.3;;;1.0;;
56593;SDS011;42474;51.660;5.824;2023-04-03T13:35:47;3.4;;;1.3;;
56593;SDS011;42474;51.660;5.824;2023-04-03T13:40:51;1.4;;;0.9;;
56593;SDS011;42474;51.660;5.824;2023-04-03T13:45:55;1.6;;;0.9;;
56593;SDS011;42474;51.660;5.824;2023-04-03T13:51:03;1.9;;;0.9;;
56593;SDS011;42474;51.660;5.824;2023-04-03T13:55:57;5.2;;;1.0;;
56593;SDS011;42474;51.660;5.824;2023-04-03T14:00:48;2.0;;;0.9;;
56593;SDS011;42474;51.660;5.824;2023-04-03T14:05:47;2.7;;;1.0;;
56593;SDS011;42474;51.660;5.824;2023-04-03T14:10:47;1.8;;;1.1;;
56593;SDS011;42474;51.660;5.824;2023-04-03T14:15:47;2.1;;;1.0;;
56593;SDS011;42474;51.660;5.824;2023-04-03T14:20:47;2.7;;;0.9;;
56593;SDS011;42474;51.660;5.824;2023-04-03T14:25:47;1.2;;;1.0;;
56593;SDS011;42474;51.660;5.824;2023-04-03T14:30:47;2.2;;;1.1;;
56593;SDS011;42474;51.660;5.824;2023-04-03T14:35:47;2.0;;;1.0;;
56593;SDS011;42474;51.660;5.824;2023-04-03T14:40:46;4.0;;;1.0;;
56593;SDS011;42474;51.660;5.824;2023-04-03T14:45:47;2.5;;;1.1;;
56593;SDS011;42474;51.660;5.824;2023-04-03T14:50:47;2.3;;;1.1;;
56593;SDS011;42474;51.660;5.824;2023-04-03T14:55:46;2.3;;;1.1;;
56593;SDS011;42474;51.660;5.824;2023-04-03T15:00:46;1.9;;;1.0;;
56593;SDS011;42474;51.660;5.824;2023-04-03T15:05:47;3.1;;;1.1;;
56593;SDS011;42474;51.660;5.824;2023-04-03T15:10:47;1.9;;;1.1;;
56593;SDS011;42474;51.660;5.824;2023-04-03T15:15:47;2.8;;;1.2;;
56593;SDS011;42474;51.660;5.824;2023-04-03T15:20:47;2.8;;;1.0;;
56593;SDS011;42474;51.660;5.824;2023-04-03T15:25:47;2.2;;;1.0;;
56593;SDS011;42474;51.660;5.824;2023-04-03T15:30:47;2.2;;;1.0;;
56593;SDS011;42474;51.660;5.824;2023-04-03T15:35:47;2.3;;;0.9;;
56593;SDS011;42474;51.660;5.824;2023-04-03T15:40:47;2.4;;;1.1;;
56593;SDS011;42474;51.660;5.824;2023-04-03T15:45:47;2.7;;;1.1;;
56593;SDS011;42474;51.660;5.824;2023-04-03T15:50:46;2.2;;;1.2;;
56593;SDS011;42474;51.660;5.824;2023-04-03T15:55:47;2.3;;;1.0;;
56593;SDS011;42474;51.660;5.824;2023-04-03T16:00:47;3.0;;;1.4;;
56593;SDS011;42474;51.660;5.824;2023-04-03T16:05:47;2.1;;;1.1;;
56593;SDS011;42474;51.660;5.824;2023-04-03T16:10:47;2.0;;;1.0;;
56593;SDS011;42474;51.660;5.824;2023-04-03T16:15:47;1.8;;;1.1;;
56593;SDS011;42474;51.660;5.824;2023-04-03T16:20:47;2.9;;;1.4;;
56593;SDS011;42474;51.660;5.824;2023-04-03T16:25:47;3.6;;;1.0;;
56593;SDS011;42474;51.660;5.824;2023-04-03T16:30:47;2.8;;;1.1;;
56593;SDS011;42474;51.660;5.824;2023-04-03T16:35:47;3.4;;;1.1;;
56593;SDS011;42474;51.660;5.824;2023-04-03T16:40:47;3.4;;;1.2;;
56593;SDS011;42474;51.660;5.824;2023-04-03T16:45:47;2.2;;;1.3;;
56593;SDS011;42474;51.660;5.824;2023-04-03T16:50:47;4.2;;;1.1;;
56593;SDS011;42474;51.660;5.824;2023-04-03T16:55:47;2.3;;;1.1;;
56593;SDS011;42474;51.660;5.824;2023-04-03T17:00:47;2.3;;;1.2;;
56593;SDS011;42474;51.660;5.824;2023-04-03T17:05:47;3.2;;;1.0;;
56593;SDS011;42474;51.660;5.824;2023-04-03T17:10:47;3.6;;;1.2;;
56593;SDS011;42474;51.660;5.824;2023-04-03T17:15:47;4.3;;;1.2;;
56593;SDS011;42474;51.660;5.824;2023-04-03T17:20:47;2.8;;;1.2;;
56593;SDS011;42474;51.660;5.824;2023-04-03T17:25:47;2.7;;;1.5;;
56593;SDS011;42474;51.660;5.824;2023-04-03T17:30:47;2.4;;;1.3;;
56593;SDS011;42474;51.660;5.824;2023-04-03T17:35:47;3.6;;;1.6;;
56593;SDS011;42474;51.660;5.824;2023-04-03T17:40:47;2.3;;;1.3;;
56593;SDS011;42474;51.660;5.824;2023-04-03T17:45:47;2.3;;;1.3;;
56593;SDS011;42474;51.660;5.824;2023-04-03T17:50:47;2.8;;;1.5;;
56593;SDS011;42474;51.660;5.824;2023-04-03T17:55:47;2.9;;;1.3;;
56593;SDS011;42474;51.660;5.824;2023-04-03T18:00:47;3.4;;;1.4;;
56593;SDS011;42474;51.660;5.824;2023-04-03T18:05:47;2.5;;;1.4;;
56593;SDS011;42474;51.660;5.824;2023-04-03T18:10:47;3.3;;;1.7;;
56593;SDS011;42474;51.660;5.824;2023-04-03T18:15:48;3.1;;;1.7;;
56593;SDS011;42474;51.660;5.824;2023-04-03T18:20:47;5.0;;;1.9;;
56593;SDS011;42474;51.660;5.824;2023-04-03T18:25:47;3.2;;;1.7;;
56593;SDS011;42474;51.660;5.824;2023-04-03T18:30:47;3.8;;;1.8;;
56593;SDS011;42474;51.660;5.824;2023-04-03T18:35:47;4.9;;;2.2;;
56593;SDS011;42474;51.660;5.824;2023-04-03T18:40:47;3.7;;;2.1;;
56593;SDS011;42474;51.660;5.824;2023-04-03T18:45:47;3.6;;;1.8;;
56593;SDS011;42474;51.660;5.824;2023-04-03T18:50:47;2.8;;;1.9;;
56593;SDS011;42474;51.660;5.824;2023-04-03T18:55:47;3.3;;;1.9;;
56593;SDS011;42474;51.660;5.824;2023-04-03T19:00:47;2.8;;;1.7;;
56593;SDS011;42474;51.660;5.824;2023-04-03T19:05:47;2.5;;;2.0;;
56593;SDS011;42474;51.660;5.824;2023-04-03T19:10:47;4.3;;;1.8;;
56593;SDS011;42474;51.660;5.824;2023-04-03T19:15:47;3.1;;;1.6;;
56593;SDS011;42474;51.660;5.824;2023-04-03T19:20:47;4.6;;;2.3;;
56593;SDS011;42474;51.660;5.824;2023-04-03T19:25:55;3.2;;;1.6;;
56593;SDS011;42474;51.660;5.824;2023-04-03T19:30:47;4.1;;;2.1;;
56593;SDS011;42474;51.660;5.824;2023-04-03T19:35:47;3.6;;;2.1;;
56593;SDS011;42474;51.660;5.824;2023-04-03T19:40:47;3.2;;;2.1;;
56593;SDS011;42474;51.660;5.824;2023-04-03T19:45:47;4.3;;;2.5;;
56593;SDS011;42474;51.660;5.824;2023-04-03T19:50:47;4.6;;;1.8;;
56593;SDS011;42474;51.660;5.824;2023-04-03T19:55:47;3.6;;;2.0;;
56593;SDS011;42474;51.660;5.824;2023-04-03T20:00:47;3.4;;;2.0;;
56593;SDS011;42474;51.660;5.824;2023-04-03T20:05:47;4.8;;;2.0;;
56593;SDS011;42474;51.660;5.824;2023-04-03T20:10:47;3.5;;;1.6;;
56593;SDS011;42474;51.660;5.824;2023-04-03T20:15:47;3.0;;;1.7;;
56593;SDS011;42474;51.660;5.824;2023-04-03T20:20:51;3.6;;;2.0;;
56593;SDS011;42474;51.660;5.824;2023-04-03T20:25:47;3.0;;;1.9;;
56593;SDS011;42474;51.660;5.824;2023-04-03T20:30:48;3.8;;;2.0;;
56593;SDS011;42474;51.660;5.824;2023-04-03T20:35:47;4.9;;;2.4;;
56593;SDS011;42474;51.660;5.824;2023-04-03T20:40:47;3.8;;;2.1;;
56593;SDS011;42474;51.660;5.824;2023-04-03T20:45:47;3.2;;;2.0;;
56593;SDS011;42474;51.660;5.824;2023-04-03T20:50:47;4.3;;;2.0;;
56593;SDS011;42474;51.660;5.824;2023-04-03T20:55:53;5.1;;;2.1;;
56593;SDS011;42474;51.660;5.824;2023-04-03T21:00:47;3.4;;;2.2;;
56593;SDS011;42474;51.660;5.824;2023-04-03T21:05:47;4.4;;;2.2;;
56593;SDS011;42474;51.660;5.824;2023-04-03T21:20:47;3.5;;;2.1;;
56593;SDS011;42474;51.660;5.824;2023-04-03T21:25:47;3.7;;;2.1;;
56593;SDS011;42474;51.660;5.824;2023-04-03T21:30:47;4.9;;;2.5;;
56593;SDS011;42474;51.660;5.824;2023-04-03T21:35:47;5.0;;;2.4;;
56593;SDS011;42474;51.660;5.824;2023-04-03T21:40:47;5.9;;;2.3;;
56593;SDS011;42474;51.660;5.824;2023-04-03T21:45:47;2.2;;;1.8;;
56593;SDS011;42474;51.660;5.824;2023-04-03T21:50:47;3.6;;;2.2;;
56593;SDS011;42474;51.660;5.824;2023-04-03T21:55:54;3.0;;;2.0;;
56593;SDS011;42474;51.660;5.824;2023-04-03T22:00:47;4.8;;;2.1;;
56593;SDS011;42474;51.660;5.824;2023-04-03T22:05:47;3.9;;;2.2;;
56593;SDS011;42474;51.660;5.824;2023-04-03T22:10:47;4.1;;;2.3;;
56593;SDS011;42474;51.660;5.824;2023-04-03T22:15:47;4.3;;;2.1;;
56593;SDS011;42474;51.660;5.824;2023-04-03T22:20:47;2.8;;;2.0;;
56593;SDS011;42474;51.660;5.824;2023-04-03T22:25:55;5.2;;;2.2;;
56593;SDS011;42474;51.660;5.824;2023-04-03T22:30:47;6.0;;;2.5;;
56593;SDS011;42474;51.660;5.824;2023-04-03T22:35:47;4.7;;;2.5;;
56593;SDS011;42474;51.660;5.824;2023-04-03T22:40:49;3.3;;;2.4;;
56593;SDS011;42474;51.660;5.824;2023-04-03T22:45:47;3.9;;;2.5;;
56593;SDS011;42474;51.660;5.824;2023-04-03T22:50:47;5.6;;;2.4;;
56593;SDS011;42474;51.660;5.824;2023-04-03T22:55:52;3.5;;;2.3;;
56593;SDS011;42474;51.660;5.824;2023-04-03T23:00:47;4.8;;;2.2;;
56593;SDS011;42474;51.660;5.824;2023-04-03T23:05:47;4.0;;;2.4;;
56593;SDS011;42474;51.660;5.824;2023-04-03T23:10:47;3.7;;;2.4;;
56593;SDS011;42474;51.660;5.824;2023-04-03T23:15:51;3.9;;;2.3;;
56593;SDS011;42474;51.660;5.824;2023-04-03T23:20:47;3.8;;;2.3;;
56593;SDS011;42474;51.660;5.824;2023-04-03T23:25:47;4.7;;;2.1;;
56593;SDS011;42474;51.660;5.824;2023-04-03T23:30:47;6.5;;;2.3;;
56593;SDS011;42474;51.660;5.824;2023-04-03T23:35:47;6.3;;;2.7;;
56593;SDS011;42474;51.660;5.824;2023-04-03T23:40:47;5.3;;;2.3;;
56593;SDS011;42474;51.660;5.824;2023-04-03T23:45:47;5.1;;;2.6;;
56593;SDS011;42474;51.660;5.824;2023-04-03T23:50:47;4.5;;;2.6;;
56593;SDS011;42474;51.660;5.824;2023-04-03T23:55:47;5.9;;;2.5;;
